Time;durP1;ratioP1;P1;durP2;ratioP2;P2;SDS_P1;SDS_P2;PMS_P1;PMS_P2;Temp;Humidity;BMP_temperature;BMP_pressure;BME280_temperature;BME280_humidity;BME280_pressure;Samples;Min_cycle;Max_cycle;Signal;HPM_P1;HPM_P2
2021/08/13 00:00:14;;;;;;;16.02;13.63;;;19.90;99.90;;;19.95;77.38;101723.94;5079396;28;20124;-70
2021/08/13 00:02:43;;;;;;;14.95;13.35;;;19.90;99.90;;;20.54;77.48;101819.81;5061708;28;20048;-70
2021/08/13 00:05:14;;;;;;;16.77;14.98;;;20.00;99.90;;;20.50;77.28;101803.81;5079312;28;20051;-70
2021/08/13 00:07:43;;;;;;;13.95;11.65;;;20.00;99.90;;;20.61;77.38;101818.69;5061585;28;20045;-70
2021/08/13 00:10:12;;;;;;;13.90;12.38;;;20.10;99.90;;;20.63;76.49;101816.84;5079278;28;20466;-70
2021/08/13 00:12:40;;;;;;;15.18;13.57;;;20.10;99.90;;;20.77;76.61;101826.31;5079524;28;20049;-70
2021/08/13 00:15:10;;;;;;;17.90;14.20;;;20.20;99.90;;;20.70;76.52;101836.38;5079242;28;20517;-70
2021/08/13 00:17:39;;;;;;;14.90;12.60;;;20.20;99.90;;;20.63;77.27;101838.34;5079874;28;20139;-71
2021/08/13 00:20:09;;;;;;;15.85;14.27;;;20.20;99.90;;;20.49;76.97;101818.19;5061529;28;20044;-70
2021/08/13 00:22:39;;;;;;;16.25;13.40;;;20.10;99.90;;;20.61;77.50;101840.19;5079555;28;20044;-70
2021/08/13 00:25:08;;;;;;;18.27;14.27;;;20.10;99.90;;;20.59;76.63;101830.44;5079186;28;20047;-70
2021/08/13 00:27:37;;;;;;;18.02;15.27;;;20.10;99.90;;;20.63;76.21;101848.25;5079052;28;20119;-70
2021/08/13 00:30:10;;;;;;;17.23;15.10;;;20.10;99.90;;;20.64;76.02;101848.19;5079178;28;20478;-70
2021/08/13 00:32:39;;;;;;;17.40;15.20;;;20.10;99.90;;;20.67;75.93;101845.41;5061480;28;20548;-70
2021/08/13 00:35:09;;;;;;;18.60;14.80;;;20.10;99.90;;;20.35;76.10;101837.41;5061405;28;20045;-69
2021/08/13 00:37:39;;;;;;;17.50;14.77;;;20.00;99.90;;;20.29;77.11;101848.34;5061017;28;20118;-71
2021/08/13 00:40:09;;;;;;;16.77;14.98;;;19.80;99.90;;;20.29;77.78;101850.13;5060969;28;20494;-70
2021/08/13 00:42:40;;;;;;;15.73;14.10;;;19.70;99.90;;;20.23;77.36;101848.50;5078114;28;20064;-69
2021/08/13 00:45:10;;;;;;;16.77;14.98;;;19.70;99.90;;;19.78;76.88;101788.00;5079395;28;20040;-70
2021/08/13 00:47:49;;;;;;;17.50;14.20;;;19.70;99.90;;;20.36;76.73;101855.28;5060941;28;20063;-70
2021/08/13 00:50:33;;;;;;;15.98;14.27;;;19.80;99.90;;;20.36;76.00;101849.91;5061134;28;20055;-70
2021/08/13 00:53:04;;;;;;;15.63;13.38;;;19.90;99.90;;;20.40;75.60;101846.22;5075634;28;20076;-70
2021/08/13 00:55:33;;;;;;;14.68;13.20;;;19.90;99.90;;;20.42;75.36;101855.13;5057879;28;20131;-70
2021/08/13 00:58:07;;;;;;;16.13;13.70;;;19.90;99.90;;;20.35;74.88;101834.72;5058259;28;20048;-70
2021/08/13 01:00:45;;;;;;;14.73;13.13;;;20.00;99.90;;;20.61;74.58;101855.47;5057895;28;20444;-70
2021/08/13 01:03:15;;;;;;;13.63;11.77;;;20.10;99.90;;;20.64;74.09;101848.19;5074737;28;20052;-70
2021/08/13 01:05:49;;;;;;;12.77;11.48;;;20.20;99.90;;;20.81;73.59;101862.94;5057851;28;20052;-70
2021/08/13 01:08:21;;;;;;;17.77;11.73;;;20.30;99.90;;;20.20;73.40;101751.88;5057654;28;20063;-70
2021/08/13 01:11:00;;;;;;;14.75;12.07;;;20.40;99.90;;;20.91;73.14;101861.72;5074550;28;20468;-70
2021/08/13 01:13:40;;;;;;;19.17;11.77;;;20.40;99.90;;;20.82;72.80;101853.94;5057809;28;20117;-70
2021/08/13 01:16:08;;;;;;;12.18;10.88;;;20.50;99.90;;;20.91;72.81;101854.53;5058034;28;20059;-70
2021/08/13 01:18:43;;;;;;;14.05;11.57;;;20.50;99.90;;;20.98;72.60;101866.84;5057717;28;20060;-70
2021/08/13 01:21:35;;;;;;;12.98;11.68;;;20.50;99.90;;;20.96;72.48;101867.84;5057599;28;20456;-70
2021/08/13 01:24:11;;;;;;;14.70;11.40;;;20.50;99.90;;;20.92;72.53;101871.56;5057524;28;20135;-69
2021/08/13 01:26:50;;;;;;;11.63;10.45;;;20.50;99.90;;;20.87;72.60;101862.72;5075063;28;20055;-70
2021/08/13 01:29:32;;;;;;;12.37;11.07;;;20.40;99.90;;;20.68;73.35;101857.94;5057508;28;20052;-70
2021/08/13 01:32:35;;;;;;;12.45;11.10;;;20.20;99.90;;;20.32;75.42;101850.97;5057451;28;20131;-70
2021/08/13 01:35:10;;;;;;;14.88;12.13;;;19.90;99.90;;;20.29;75.56;101860.88;5062123;28;20079;-70
2021/08/13 01:37:46;;;;;;;12.93;11.52;;;19.70;99.90;;;20.29;75.50;101860.88;5074056;28;20076;-70
2021/08/13 01:40:17;;;;;;;12.90;10.95;;;19.70;99.90;;;20.32;75.28;101847.38;5057232;28;20076;-70
2021/08/13 01:42:49;;;;;;;14.32;12.85;;;19.80;99.90;;;20.39;75.18;101865.09;5057109;28;20087;-69
2021/08/13 01:45:24;;;;;;;12.57;11.27;;;19.80;99.90;;;20.19;75.03;101819.97;5057232;28;20083;-70
2021/08/13 01:47:57;;;;;;;13.05;10.82;;;19.90;99.90;;;20.35;76.01;101864.28;5057096;28;20048;-70
2021/08/13 01:50:26;;;;;;;12.45;10.95;;;19.90;99.90;;;20.09;75.90;101863.25;5075019;28;20055;-70
2021/08/13 01:53:01;;;;;;;13.15;10.95;;;19.60;99.90;;;19.96;76.28;101860.00;5057072;28;20102;-70
2021/08/13 01:55:31;;;;;;;12.30;11.02;;;19.40;99.90;;;19.87;77.12;101859.34;5056994;28;20078;-70
2021/08/13 01:58:02;;;;;;;12.82;10.90;;;19.30;99.90;;;19.77;77.14;101843.50;5056978;28;20044;-70
2021/08/13 02:00:31;;;;;;;12.57;11.17;;;19.30;99.90;;;19.94;77.38;101869.91;5074477;28;20506;-69
2021/08/13 02:03:02;;;;;;;12.65;10.90;;;19.50;99.90;;;19.96;77.30;101876.09;5073482;28;20048;-70
2021/08/13 02:05:37;;;;;;;13.50;10.90;;;19.50;99.90;;;19.96;77.04;101869.84;5073355;28;20131;-70
2021/08/13 02:08:09;;;;;;;13.75;10.98;;;19.50;99.90;;;20.02;76.77;101870.56;5073345;28;20140;-70
2021/08/13 02:10:46;;;;;;;12.88;10.98;;;19.60;99.90;;;20.01;76.98;101858.09;5073353;28;20075;-70
2021/08/13 02:13:16;;;;;;;11.55;10.45;;;19.60;99.90;;;20.01;76.82;101847.34;5056679;28;20139;-70
2021/08/13 02:15:57;;;;;;;12.35;10.23;;;19.60;99.90;;;20.12;76.38;101855.97;5074253;28;20052;-70
2021/08/13 02:18:30;;;;;;;12.13;9.48;;;19.70;99.90;;;20.21;76.10;101874.53;5056592;28;20055;-70
2021/08/13 02:21:05;;;;;;;11.05;9.88;;;19.70;99.90;;;20.28;75.74;101856.47;5073202;28;20102;-70
2021/08/13 02:23:34;;;;;;;11.43;10.27;;;19.80;99.90;;;20.33;75.57;101857.19;5074113;28;20105;-70
2021/08/13 02:26:05;;;;;;;10.80;9.73;;;19.90;99.90;;;20.33;75.76;101860.78;5073037;28;20036;-70
2021/08/13 02:28:35;;;;;;;10.03;8.90;;;19.90;99.90;;;19.78;76.07;101779.94;5056271;28;20060;-70
2021/08/13 02:31:04;;;;;;;10.35;9.32;;;19.90;99.90;;;20.39;75.63;101855.22;5073919;28;20501;-70
2021/08/13 02:33:37;;;;;;;13.55;9.80;;;19.90;99.90;;;20.45;75.43;101860.44;5056271;28;20111;-70
2021/08/13 02:36:10;;;;;;;10.18;9.10;;;20.00;99.90;;;20.24;75.21;101815.38;5072885;28;20079;-70
2021/08/13 02:38:51;;;;;;;11.70;9.50;;;20.00;99.90;;;20.46;75.66;101856.78;5055815;28;20098;-70
2021/08/13 02:41:21;;;;;;;10.98;9.88;;;20.10;99.90;;;20.44;75.45;101849.72;5072695;28;20051;-70
2021/08/13 02:43:55;;;;;;;10.88;9.73;;;20.00;99.90;;;20.52;75.12;101866.47;5073328;28;20063;-69
2021/08/13 02:46:31;;;;;;;10.90;9.55;;;20.00;99.90;;;20.56;74.84;101862.78;5073872;28;20059;-70
2021/08/13 02:49:03;;;;;;;10.40;9.40;;;20.10;99.90;;;20.58;74.85;101864.50;5055917;28;20076;-70
2021/08/13 02:51:34;;;;;;;11.73;9.82;;;20.10;99.90;;;20.47;74.76;101839.75;5072580;28;20559;-70
2021/08/13 02:54:04;;;;;;;12.15;9.77;;;20.10;99.90;;;20.61;74.75;101859.03;5055906;28;20071;-70
2021/08/13 02:56:36;;;;;;;10.68;9.57;;;20.20;99.90;;;20.69;74.69;101862.38;5055838;28;20055;-70
2021/08/13 02:59:09;;;;;;;10.68;9.57;;;20.20;99.90;;;20.71;74.62;101861.47;5055937;28;20101;-70
2021/08/13 03:01:42;;;;;;;11.45;9.82;;;20.20;99.90;;;20.72;74.57;101873.97;5056090;28;20052;-69
2021/08/13 03:04:14;;;;;;;10.48;9.27;;;20.20;99.90;;;20.62;74.63;101857.22;5055679;28;20106;-70
2021/08/13 03:06:44;;;;;;;11.82;8.85;;;20.20;99.90;;;20.72;74.76;101869.47;5055660;28;20077;-70
2021/08/13 03:09:15;;;;;;;10.10;8.73;;;20.30;99.90;;;20.73;75.10;101890.03;5072078;28;20139;-70
2021/08/13 03:11:45;;;;;;;10.93;9.40;;;20.30;99.90;;;20.78;75.24;101880.06;5073285;28;20115;-70
2021/08/13 03:14:20;;;;;;;10.95;9.70;;;20.30;99.90;;;20.72;75.05;101876.66;5072305;28;20044;-70
2021/08/13 03:16:54;;;;;;;10.82;9.73;;;20.30;99.90;;;20.75;75.11;101881.97;5072901;28;20094;-70
2021/08/13 03:19:25;;;;;;;11.43;10.23;;;20.30;99.90;;;20.74;75.26;101875.69;5071805;28;20094;-70
2021/08/13 03:21:54;;;;;;;11.88;9.98;;;20.30;99.90;;;20.68;75.13;101868.69;5055446;28;20041;-70
2021/08/13 03:24:26;;;;;;;11.15;10.02;;;20.20;99.90;;;20.63;74.92;101857.16;5073420;28;20074;-70
2021/08/13 03:26:58;;;;;;;11.27;10.05;;;20.20;99.90;;;20.65;74.87;101860.69;5072206;28;20093;-70
2021/08/13 03:29:27;;;;;;;12.27;10.70;;;20.20;99.90;;;20.45;75.01;101862.22;5072944;28;20037;-70
2021/08/13 03:31:59;;;;;;;11.73;10.45;;;20.10;99.90;;;20.48;75.08;101843.31;5073118;28;20485;-70
2021/08/13 03:34:29;;;;;;;10.70;9.07;;;20.10;99.90;;;20.52;75.20;101839.59;5055427;28;20049;-70
2021/08/13 03:36:58;;;;;;;10.82;9.73;;;20.10;99.90;;;20.61;75.08;101845.56;5055001;28;20098;-70
2021/08/13 03:39:28;;;;;;;11.55;9.98;;;20.10;99.90;;;20.53;74.97;101831.50;5054980;28;20080;-70
2021/08/13 03:41:57;;;;;;;12.30;10.55;;;20.10;99.90;;;20.56;75.20;101838.59;5055237;28;20557;-70
2021/08/13 03:44:25;;;;;;;15.02;11.00;;;20.10;99.90;;;20.59;75.11;101842.09;5071664;28;20048;-70
2021/08/13 03:46:55;;;;;;;13.37;10.70;;;20.10;99.90;;;20.59;74.98;101836.72;5055206;28;20049;-70
2021/08/13 03:49:24;;;;;;;12.73;11.32;;;20.10;99.90;;;20.59;74.92;101836.72;5072774;28;20037;-70
2021/08/13 03:51:57;;;;;;;13.57;10.65;;;20.10;99.90;;;20.58;74.96;101832.25;5071891;28;20053;-70
2021/08/13 03:54:26;;;;;;;12.70;10.30;;;20.10;99.90;;;18.64;74.82;101508.53;5055157;28;20550;-70
2021/08/13 03:56:58;;;;;;;17.03;10.87;;;20.10;99.90;;;20.56;74.89;101842.16;5055120;28;20048;-70
2021/08/13 03:59:29;;;;;;;13.00;9.88;;;20.10;99.90;;;20.55;74.88;101848.47;5055111;28;20052;-70
2021/08/13 04:01:57;;;;;;;13.80;10.85;;;20.00;99.90;;;19.99;75.06;101767.72;5054985;28;20050;-70
2021/08/13 04:04:26;;;;;;;13.48;10.77;;;20.10;99.90;;;20.42;75.09;101838.13;5054982;28;20041;-70
2021/08/13 04:06:56;;;;;;;13.13;10.90;;;20.00;99.90;;;20.26;75.09;101813.50;5071727;28;20055;-70
2021/08/13 04:09:25;;;;;;;12.85;11.05;;;20.00;99.90;;;20.07;75.05;101797.94;5072518;28;20049;-70
2021/08/13 04:11:54;;;;;;;13.32;11.27;;;20.00;99.90;;;20.32;75.03;101832.16;5054661;28;20048;-70
2021/08/13 04:14:26;;;;;;;12.90;11.18;;;20.00;99.90;;;20.39;75.17;101860.59;5071660;28;20041;-70
2021/08/13 04:16:56;;;;;;;13.23;11.33;;;20.00;99.90;;;20.44;75.18;101866.72;5054937;28;20585;-70
2021/08/13 04:19:24;;;;;;;14.00;10.98;;;20.00;99.90;;;20.40;75.14;101862.34;5054836;28;20504;-70
2021/08/13 04:21:53;;;;;;;15.10;11.65;;;19.90;99.90;;;20.37;75.20;101867.81;5054767;28;20140;-70
2021/08/13 04:24:23;;;;;;;13.60;11.20;;;19.90;99.90;;;20.33;75.30;101870.63;5072778;28;20139;-70
2021/08/13 04:26:51;;;;;;;13.93;10.70;;;19.90;99.90;;;20.35;75.38;101858.91;5054816;28;20040;-70
2021/08/13 04:29:20;;;;;;;16.08;11.80;;;19.90;99.90;;;20.35;75.43;101864.28;5076018;28;20688;-70
2021/08/13 04:31:50;;;;;;;16.02;12.02;;;19.90;99.90;;;20.18;75.34;101842.41;5076498;28;20048;-70
2021/08/13 04:34:18;;;;;;;15.60;12.10;;;19.80;99.90;;;20.09;75.77;101822.94;5058538;28;20045;-70
2021/08/13 04:36:47;;;;;;;13.70;11.57;;;19.80;99.90;;;20.20;76.16;101837.88;5058363;28;20044;-70
2021/08/13 04:39:16;;;;;;;14.98;11.77;;;19.80;99.90;;;20.13;76.45;101836.22;5058078;28;20056;-70
2021/08/13 04:41:46;;;;;;;12.80;10.98;;;19.80;99.90;;;20.01;76.68;101827.66;5076287;28;20045;-70
2021/08/13 04:44:14;;;;;;;14.60;12.37;;;19.70;99.90;;;20.13;76.93;101857.72;5074715;28;20094;-70
2021/08/13 04:46:43;;;;;;;14.48;11.05;;;19.70;99.90;;;20.09;77.56;101856.03;5058034;28;20044;-70
2021/08/13 04:49:15;;;;;;;15.40;12.50;;;19.60;99.90;;;20.08;77.41;101869.53;5058159;28;20044;-70
2021/08/13 04:51:46;;;;;;;17.38;13.07;;;19.70;99.90;;;18.15;77.17;101525.91;5058206;28;20040;-70
2021/08/13 04:54:14;;;;;;;16.83;12.95;;;19.70;99.90;;;20.05;77.66;101851.69;5058120;28;20211;-70
2021/08/13 04:56:44;;;;;;;15.68;12.60;;;19.70;99.90;;;19.82;78.15;101829.06;5058033;28;20394;-70
2021/08/13 04:59:13;;;;;;;;;;;19.60;99.90;;;20.05;77.94;101862.44;5058192;28;20045;-70
2021/08/13 05:01:48;;;;;;;16.45;12.40;;;19.60;99.90;;;20.18;77.80;101861.22;5058041;28;20037;-70
2021/08/13 05:04:17;;;;;;;16.23;11.82;;;19.70;99.90;;;20.28;77.76;101865.41;5074872;28;20413;-70
2021/08/13 05:06:47;;;;;;;15.52;12.40;;;19.80;99.90;;;20.36;77.71;101866.03;5057816;28;20044;-70
2021/08/13 05:09:18;;;;;;;18.30;11.75;;;19.90;99.90;;;20.18;77.77;101823.59;5075703;28;20032;-70
2021/08/13 05:11:49;;;;;;;15.75;12.30;;;19.90;99.90;;;20.32;77.81;101837.53;5057867;28;20049;-70
2021/08/13 05:14:20;;;;;;;22.23;13.05;;;20.00;99.90;;;20.57;77.87;101868.13;5057813;28;20463;-70
2021/08/13 05:16:49;;;;;;;16.33;13.27;;;20.10;99.90;;;20.48;77.85;101841.50;5057780;28;20048;-70
2021/08/13 05:19:18;;;;;;;18.60;13.82;;;20.10;99.90;;;20.70;77.89;101868.63;5057693;28;20306;-70
2021/08/13 05:21:49;;;;;;;20.35;13.10;;;20.20;99.90;;;20.75;77.80;101868.50;5057562;28;20052;-70
2021/08/13 05:24:25;;;;;;;16.77;12.30;;;20.30;99.90;;;20.79;77.85;101868.34;5057335;28;20409;-70
2021/08/13 05:26:58;;;;;;;18.48;12.63;;;20.30;99.90;;;20.82;77.87;101878.13;5057566;28;20448;-70
2021/08/13 05:29:26;;;;;;;;;;;20.30;99.90;;;20.88;77.50;101886.03;5075870;28;20040;-70
2021/08/13 05:31:55;;;;;;;15.13;11.65;;;20.40;99.90;;;20.77;77.67;101856.75;5057388;28;19921;-70
2021/08/13 05:34:23;;;;;;;19.92;12.27;;;20.40;99.90;;;20.89;77.70;101871.63;5074389;28;20708;-70
2021/08/13 05:36:53;;;;;;;18.10;12.15;;;20.40;99.90;;;20.77;77.69;101851.38;5073848;28;20048;-70
2021/08/13 05:39:22;;;;;;;16.00;11.88;;;20.40;99.90;;;20.95;77.66;101877.72;5056888;28;20048;-70
2021/08/13 05:41:50;;;;;;;15.63;11.05;;;20.50;99.90;;;21.00;77.68;101880.28;5057206;28;20044;-70
2021/08/13 05:44:20;;;;;;;14.02;10.57;;;20.50;99.90;;;20.92;77.63;101867.06;5074971;28;20045;-70
2021/08/13 05:46:50;;;;;;;16.95;11.45;;;20.50;99.90;;;21.01;77.70;101892.81;5074751;28;20044;-70
2021/08/13 05:49:19;;;;;;;15.63;11.18;;;20.50;99.90;;;21.01;77.94;101888.31;5074870;28;20062;-70
2021/08/13 05:51:47;;;;;;;14.57;11.20;;;20.50;99.90;;;21.05;78.11;101897.19;5056933;28;20049;-70
2021/08/13 05:54:16;;;;;;;16.90;11.73;;;20.60;99.90;;;20.88;77.92;101867.19;5056858;28;20044;-70
2021/08/13 05:56:46;;;;;;;15.23;10.52;;;20.60;99.90;;;21.11;78.09;101900.56;5056790;28;20102;-70
2021/08/13 05:59:15;;;;;;;21.42;11.27;;;20.60;99.90;;;21.18;78.14;101895.84;5074749;28;20045;-70
2021/08/13 06:01:45;;;;;;;16.05;10.57;;;20.70;99.90;;;21.17;78.30;101904.88;5056857;28;20135;-70
2021/08/13 06:04:13;;;;;;;16.45;10.85;;;20.70;99.90;;;21.22;78.20;101900.22;5074754;28;20036;-70
2021/08/13 06:06:43;;;;;;;14.35;10.23;;;20.70;99.90;;;21.28;78.10;101906.28;5073299;28;20056;-70
2021/08/13 06:09:11;;;;;;;15.68;9.95;;;20.80;99.90;;;20.61;78.21;101797.19;5056547;28;20474;-71
2021/08/13 06:11:41;;;;;;;16.60;10.65;;;20.80;99.90;;;21.29;78.16;101899.09;5056390;28;20569;-70
2021/08/13 06:14:10;;;;;;;14.45;9.73;;;20.90;99.90;;;20.92;78.00;101824.03;5056596;28;20055;-71
2021/08/13 06:16:40;;;;;;;17.40;9.07;;;20.90;99.90;;;21.36;77.67;101916.81;5074544;28;20098;-70
2021/08/13 06:19:10;;;;;;;11.60;8.95;;;20.90;99.90;;;21.22;77.55;101913.66;5056482;28;20048;-70
2021/08/13 06:21:44;;;;;;;10.15;8.43;;;20.80;99.90;;;21.29;77.48;101915.25;5073072;28;20054;-70
2021/08/13 06:24:15;;;;;;;12.50;8.18;;;20.80;99.90;;;20.52;76.76;101789.41;5056389;28;20044;-70
2021/08/13 06:26:46;;;;;;;11.73;7.75;;;20.80;99.90;;;21.16;76.51;101916.56;5056362;28;20170;-70
2021/08/13 06:29:16;;;;;;;9.50;7.93;;;20.80;99.90;;;21.25;75.98;101919.84;5072912;28;20059;-70
2021/08/13 06:31:44;;;;;;;8.57;7.18;;;20.80;99.90;;;21.20;75.29;101929.88;5055920;28;20521;-70
2021/08/13 06:34:17;;;;;;;11.65;7.10;;;20.80;99.90;;;20.96;75.10;101898.31;5056135;28;20551;-69
2021/08/13 06:36:46;;;;;;;10.07;7.05;;;20.80;99.90;;;18.86;74.71;101531.16;5056194;28;20388;-73
2021/08/13 06:39:15;;;;;;;10.93;7.93;;;20.80;99.90;;;21.11;75.19;101937.34;5073737;28;20071;-69
2021/08/13 06:42:04;;;;;;;11.98;7.55;;;20.70;99.90;;;20.96;74.74;101892.06;5055966;28;20044;-72
2021/08/13 06:44:42;;;;;;;9.60;6.88;;;20.80;99.90;;;21.06;74.22;101945.56;5055343;28;20056;-74
2021/08/13 06:47:11;;;;;;;13.18;7.55;;;20.70;99.90;;;20.87;74.31;101901.28;5072272;28;20044;-62
2021/08/13 06:49:41;;;;;;;8.95;6.72;;;20.70;99.90;;;21.27;73.50;101944.03;5072149;28;20371;-66
2021/08/13 06:52:10;;;;;;;9.80;7.40;;;20.80;99.90;;;21.34;73.33;101945.59;5055422;28;20375;-64
2021/08/13 06:54:42;;;;;;;10.90;7.50;;;20.90;99.90;;;21.36;73.02;101935.66;5055725;28;20131;-66
2021/08/13 06:57:11;;;;;;;10.90;7.38;;;21.00;99.90;;;21.61;72.54;101954.59;5055576;28;20413;-64
2021/08/13 06:59:40;;;;;;;10.82;7.03;;;21.10;99.90;;;21.73;72.56;101959.59;5055362;28;20497;-67
2021/08/13 07:02:08;;;;;;;10.63;6.65;;;21.30;99.90;;;21.79;72.11;101951.31;5055617;28;20173;-67
2021/08/13 07:04:37;;;;;;;14.90;7.57;;;21.40;99.90;;;21.86;71.84;101961.84;5055217;28;20051;-68
2021/08/13 07:07:07;;;;;;;10.82;6.80;;;21.40;99.90;;;21.99;71.41;101956.94;5073372;28;20397;-68
2021/08/13 07:09:37;;;;;;;8.73;6.60;;;21.50;99.90;;;21.85;71.02;101933.16;5072017;28;20054;-67
2021/08/13 07:12:06;;;;;;;8.63;5.65;;;21.60;99.90;;;21.95;70.27;101934.59;5055480;28;20070;-68
2021/08/13 07:14:35;;;;;;;9.88;6.15;;;21.60;99.90;;;22.18;69.53;101960.78;5055398;28;20044;-67
2021/08/13 07:17:04;;;;;;;10.13;6.63;;;21.70;99.90;;;22.38;68.69;101969.91;5055497;28;20452;-67
2021/08/13 07:19:33;;;;;;;11.05;6.47;;;21.90;99.90;;;22.49;68.48;101964.16;5072159;28;20494;-66
2021/08/13 07:22:04;;;;;;;11.43;6.32;;;22.10;99.90;;;22.66;67.67;101950.06;5055271;28;20053;-68
2021/08/13 07:24:35;;;;;;;10.63;6.30;;;22.20;99.90;;;22.65;67.35;101953.72;5072123;28;20391;-67
2021/08/13 07:27:04;;;;;;;8.45;5.88;;;22.20;99.90;;;22.41;66.97;101950.91;5055003;28;20117;-66
2021/08/13 07:29:33;;;;;;;9.07;5.68;;;22.10;99.90;;;22.52;67.22;101957.75;5072874;28;20041;-66
2021/08/13 07:32:01;;;;;;;10.13;6.43;;;22.10;99.90;;;22.63;66.81;101985.25;5054824;28;20074;-67
2021/08/13 07:34:30;;;;;;;6.22;5.28;;;22.20;99.90;;;22.40;66.63;101984.22;5055250;28;20135;-66
2021/08/13 07:36:58;;;;;;;6.20;5.38;;;22.10;99.90;;;22.41;66.66;101994.06;5054923;28;20135;-63
2021/08/13 07:39:40;;;;;;;9.43;6.20;;;22.00;99.90;;;22.35;66.54;101998.81;5071748;28;20496;-65
2021/08/13 07:42:09;;;;;;;10.38;6.35;;;21.90;99.90;;;22.31;66.72;101995.34;5071915;28;20502;-65
2021/08/13 07:44:38;;;;;;;8.27;5.50;;;21.90;99.90;;;22.51;67.40;101999.16;5072827;28;20037;-64
2021/08/13 07:47:13;;;;;;;11.43;6.35;;;22.00;99.90;;;22.36;66.75;101946.63;5055144;28;20494;-66
2021/08/13 07:49:45;;;;;;;9.05;6.15;;;22.10;99.90;;;22.52;66.20;101984.72;5071831;28;20048;-64
2021/08/13 07:52:13;;;;;;;12.73;6.40;;;22.10;99.90;;;22.59;66.32;101976.38;5054807;28;20051;-63
2021/08/13 07:54:44;;;;;;;9.48;6.28;;;22.20;99.90;;;22.72;66.46;101990.31;5071768;28;20482;-63
2021/08/13 07:57:13;;;;;;;8.45;5.85;;;22.30;99.90;;;22.79;66.77;102002.63;5054973;28;20055;-61
2021/08/13 07:59:41;;;;;;;8.95;5.97;;;22.40;99.90;;;22.80;66.79;102013.34;5072574;28;20102;-63
2021/08/13 08:02:10;;;;;;;8.43;6.15;;;22.40;99.90;;;22.75;66.61;102003.69;5056731;28;20059;-64
2021/08/13 08:04:39;;;;;;;8.52;5.63;;;22.40;99.90;;;22.02;66.65;101843.63;5076654;28;20491;-63
2021/08/13 08:07:07;;;;;;;13.80;6.10;;;22.40;99.90;;;22.78;66.51;101952.31;5076643;28;20051;-68
2021/08/13 08:09:35;;;;;;;10.50;5.55;;;22.50;99.90;;;23.25;66.21;102005.34;5076453;28;20044;-71
2021/08/13 08:12:05;;;;;;;9.63;6.10;;;22.80;99.90;;;23.33;65.24;102005.09;5076807;28;20079;-65
2021/08/13 08:14:37;;;;;;;8.15;5.55;;;22.90;99.90;;;23.41;64.66;102000.28;5076833;28;20128;-68
2021/08/13 08:17:06;;;;;;;9.15;5.95;;;23.00;99.90;;;23.62;64.57;102018.31;5076750;28;20079;-65
2021/08/13 08:19:34;;;;;;;7.95;5.63;;;23.10;99.90;;;23.68;64.34;102010.88;5076631;28;20053;-66
2021/08/13 08:22:04;;;;;;;11.30;6.10;;;23.30;99.90;;;23.76;63.99;102019.56;5076682;28;20062;-69
2021/08/13 08:24:32;;;;;;;11.20;5.82;;;23.30;99.90;;;23.59;63.28;102031.97;5076955;28;20049;-70
2021/08/13 08:27:00;;;;;;;10.60;5.72;;;23.20;99.90;;;23.63;63.52;102044.44;5076769;28;20056;-68
2021/08/13 08:29:30;;;;;;;8.65;5.90;;;23.20;99.90;;;23.81;63.85;102036.44;5076301;28;20374;-74
2021/08/13 08:31:59;;;;;;;9.23;5.90;;;23.30;99.90;;;23.55;62.94;101985.28;5076797;28;20577;-68
2021/08/13 08:34:27;;;;;;;8.35;6.13;;;23.40;99.90;;;23.98;62.88;102038.47;5076371;28;20048;-69
2021/08/13 08:36:59;;;;;;;8.98;5.45;;;23.50;99.90;;;24.17;62.73;102036.81;5076376;28;20425;-68
2021/08/13 08:39:30;;;;;;;9.20;5.22;;;23.70;99.90;;;24.37;62.65;102036.81;5076042;28;20516;-69
2021/08/13 08:41:59;;;;;;;9.05;6.00;;;23.90;99.90;;;24.42;62.05;102047.44;5076206;28;20060;-69
2021/08/13 08:44:29;;;;;;;10.00;5.57;;;24.00;99.90;;;24.29;61.49;102027.28;5076278;28;20498;-67
2021/08/13 08:46:59;;;;;;;12.55;6.72;;;24.00;99.90;;;24.43;60.75;102047.38;5076071;28;20040;-70
2021/08/13 08:49:31;;;;;;;10.70;5.72;;;24.10;99.90;;;24.33;59.83;102064.94;5075910;28;20044;-70
2021/08/13 08:52:01;;;;;;;9.45;5.20;;;23.90;99.90;;;24.17;59.97;102053.91;5075821;28;20080;-71
2021/08/13 08:54:31;;;;;;;8.85;5.13;;;23.90;99.90;;;23.88;59.67;101988.44;5076161;28;20056;-70
2021/08/13 08:57:00;;;;;;;11.68;5.53;;;23.90;99.90;;;24.31;59.41;102066.88;5075953;28;20048;-70
2021/08/13 08:59:40;;;;;;;10.68;4.80;;;23.90;99.90;;;24.27;59.57;102056.22;5076312;28;20062;-68
2021/08/13 09:02:09;;;;;;;10.90;5.00;;;24.00;99.90;;;24.38;58.95;102081.88;5076172;28;20440;-69
2021/08/13 09:04:38;;;;;;;8.20;4.88;;;24.00;99.90;;;24.46;59.24;102078.84;5075823;28;20044;-70
2021/08/13 09:07:07;;;;;;;10.95;5.22;;;24.00;99.90;;;24.55;58.76;102073.03;5075892;28;20049;-71
2021/08/13 09:09:35;;;;;;;9.23;5.28;;;24.10;99.90;;;24.54;57.80;102069.47;5075474;28;20071;-70
2021/08/13 09:12:08;;;;;;;9.45;5.07;;;24.10;99.90;;;24.37;57.62;102055.75;5075635;28;20055;-67
2021/08/13 09:14:41;;;;;;;12.05;5.50;;;24.10;99.90;;;24.62;57.50;102061.00;5075394;28;20056;-71
2021/08/13 09:17:10;;;;;;;8.82;4.53;;;24.20;99.90;;;24.63;56.87;102073.59;5075843;28;20406;-66
2021/08/13 09:19:45;;;;;;;7.95;4.65;;;24.20;99.90;;;24.51;56.73;102072.28;5075557;28;20143;-61
2021/08/13 09:22:16;;;;;;;7.72;4.53;;;24.10;99.90;;;24.58;57.06;102073.81;5075503;28;20396;-80
2021/08/13 09:24:47;;;;;;;10.15;5.50;;;24.10;99.90;;;24.64;56.53;102084.34;5075604;28;20052;-67
2021/08/13 09:27:24;;;;;;;10.82;4.85;;;24.20;99.90;;;24.86;57.36;102073.50;5075373;28;20135;-68
2021/08/13 09:30:15;;;;;;;11.07;5.07;;;24.40;99.90;;;25.09;57.09;102076.03;5074104;28;20055;-70
2021/08/13 09:32:59;;;;;;;7.35;4.53;;;24.60;99.90;;;25.07;56.46;102088.78;5075167;28;20044;-69
2021/08/13 09:35:33;;;;;;;9.70;5.05;;;24.70;99.90;;;24.83;55.35;102084.47;5075209;28;20070;-69
2021/08/13 09:38:11;;;;;;;9.30;4.78;;;24.60;99.90;;;24.65;54.67;102077.09;5075215;28;20124;-69
2021/08/13 09:40:45;;;;;;;11.00;5.05;;;24.40;99.90;;;24.80;55.29;102096.31;5074889;28;20048;-71
2021/08/13 09:43:13;;;;;;;9.85;5.07;;;24.40;99.90;;;24.78;55.31;102095.47;5074908;28;20051;-66
2021/08/13 09:45:45;;;;;;;10.32;4.85;;;24.40;99.90;;;24.79;54.92;102094.56;5056705;28;20139;-69
2021/08/13 09:48:24;;;;;;;14.13;5.88;;;24.40;99.90;;;24.96;55.22;102107.34;5057012;28;20102;-67
2021/08/13 09:50:53;;;;;;;12.45;5.68;;;24.50;99.90;;;24.63;55.31;102054.63;5073887;28;20048;-68
2021/08/13 09:53:21;;;;;;;9.18;5.15;;;24.60;99.90;;;25.12;55.20;102111.13;5074730;28;20103;-66
2021/08/13 09:55:50;;;;;;;12.70;5.47;;;24.70;99.90;;;25.21;54.78;102123.38;5074411;28;20417;-71
2021/08/13 09:58:26;;;;;;;11.80;5.03;;;24.80;99.90;;;25.12;54.37;102108.41;5074369;28;20045;-64
2021/08/13 10:00:56;;;;;;;12.23;5.25;;;24.80;99.90;;;25.23;54.85;102116.94;5074395;28;20074;-64
2021/08/13 10:03:24;;;;;;;14.32;5.70;;;24.80;99.90;;;25.32;54.62;102111.09;5074741;28;20064;-69
2021/08/13 10:06:04;;;;;;;12.57;5.32;;;24.90;99.90;;;24.98;53.90;102059.41;5056654;28;20048;-71
2021/08/13 10:08:45;;;;;;;16.52;5.32;;;24.90;99.90;;;25.43;53.55;102126.91;5074427;28;20055;-68
2021/08/13 10:11:16;;;;;;;13.07;5.43;;;25.00;99.90;;;25.45;53.81;102120.47;5056761;28;20460;-72
2021/08/13 10:13:52;;;;;;;11.95;5.28;;;25.00;99.90;;;25.25;53.60;102096.06;5056492;28;20045;-72
2021/08/13 10:16:26;;;;;;;19.20;5.10;;;25.00;99.90;;;25.43;53.35;102111.53;5072835;28;20052;-63
2021/08/13 10:19:06;;;;;;;9.63;4.50;;;25.00;99.90;;;25.21;52.76;102097.16;5056485;28;20466;-69
2021/08/13 10:21:35;;;;;;;11.55;5.18;;;24.90;99.90;;;25.29;53.05;102137.44;5056407;28;20059;-68